Time;durP1;ratioP1;P1;durP2;ratioP2;P2;SDS_P1;SDS_P2;PMS_P1;PMS_P2;Temp;Humidity;BMP_temperature;BMP_pressure;BME280_temperature;BME280_humidity;BME280_pressure;Samples;Min_cycle;Max_cycle;Signal;HPM_P1;HPM_P2
2022/12/21 00:01:55;;;;;;;31.42;15.80;;;;;;;10.95;60.36;100878.88;4946908;28;96949;-68
2022/12/21 00:04:22;;;;;;;34.17;16.83;;;;;;;10.62;61.13;100871.19;4942054;28;100789;-68
2022/12/21 00:06:50;;;;;;;33.90;16.08;;;;;;;10.77;60.83;100873.28;4947365;28;98799;-67
2022/12/21 00:09:17;;;;;;;39.00;17.65;;;;;;;10.82;60.88;100853.78;4954606;28;96787;-67
2022/12/21 00:11:43;;;;;;;33.60;16.08;;;;;;;10.96;60.56;100867.41;4947934;28;96907;-68
2022/12/21 00:14:10;;;;;;;32.85;16.42;;;;;;;10.86;60.54;100869.47;4944082;28;98906;-66
2022/12/21 00:16:38;;;;;;;36.75;16.98;;;;;;;10.78;60.93;100868.88;4948888;28;98818;-66
2022/12/21 00:19:12;;;;;;;33.45;17.20;;;;;;;10.98;60.33;100865.53;4957580;28;97652;-67
2022/12/21 00:21:39;;;;;;;33.17;16.63;;;;;;;11.01;60.21;100870.72;4952408;28;96822;-67
2022/12/21 00:24:07;;;;;;;38.33;17.05;;;;;;;10.76;60.69;100853.06;4953631;28;98905;-67
2022/12/21 00:26:36;;;;;;;37.17;17.75;;;;;;;10.82;61.24;100859.06;4952686;28;99162;-66
2022/12/21 00:29:03;;;;;;;36.97;16.42;;;;;;;10.75;61.49;100859.28;4942822;28;96985;-67
2022/12/21 00:31:32;;;;;;;31.98;15.52;;;;;;;10.87;60.60;100851.84;4954499;28;97052;-67
2022/12/21 00:33:59;;;;;;;33.30;17.35;;;;;;;10.92;60.77;100849.88;4946306;28;98483;-66
2022/12/21 00:36:27;;;;;;;34.78;16.98;;;;;;;10.52;62.05;100856.53;4943592;28;100052;-66
2022/12/21 00:38:54;;;;;;;33.28;16.80;;;;;;;10.56;62.09;100849.41;4943174;28;96854;-66
2022/12/21 00:41:23;;;;;;;36.03;16.70;;;;;;;10.72;61.66;100845.28;4945911;28;98980;-68
2022/12/21 00:43:52;;;;;;;35.00;17.35;;;;;;;10.83;61.65;100845.78;4947709;28;99247;-67
2022/12/21 00:46:21;;;;;;;36.75;17.50;;;;;;;10.53;62.06;100838.91;4939802;28;98765;-68
2022/12/21 00:48:47;;;;;;;35.40;16.70;;;;;;;10.67;62.01;100845.47;4938474;28;96826;-66
2022/12/21 00:51:16;;;;;;;32.42;16.73;;;;;;;10.85;61.07;100835.16;4941284;28;96794;-67
2022/12/21 00:53:43;;;;;;;36.25;16.60;;;;;;;10.65;61.85;100841.13;4944607;28;99083;-66
2022/12/21 00:56:11;;;;;;;35.83;16.30;;;;;;;10.38;62.25;100838.50;4944628;28;100660;-66
2022/12/21 00:58:39;;;;;;;35.25;16.80;;;;;;;10.57;62.12;100837.88;4947507;28;96937;-67
2022/12/21 01:01:09;;;;;;;33.53;15.85;;;;;;;10.45;62.59;100836.53;4949110;28;96849;-66
2022/12/21 01:03:35;;;;;;;33.03;16.20;;;;;;;10.42;63.08;100834.00;4945519;28;97647;-66
2022/12/21 01:06:01;;;;;;;35.78;16.90;;;;;;;10.56;62.53;100833.53;4941630;28;99622;-66
2022/12/21 01:08:28;;;;;;;34.45;16.40;;;;;;;10.33;62.63;100836.94;4950775;28;97035;-66
2022/12/21 01:10:57;;;;;;;35.00;16.77;;;;;;;10.46;62.54;100837.38;4948244;28;97074;-66
2022/12/21 01:13:24;;;;;;;37.38;17.27;;;;;;;10.61;62.32;100834.25;4953221;28;99365;-66
2022/12/21 01:15:52;;;;;;;32.65;15.07;;;;;;;10.55;62.45;100832.66;4951996;28;98835;-67
2022/12/21 01:18:18;;;;;;;34.53;16.13;;;;;;;10.51;62.63;100833.66;4948688;28;96871;-67
2022/12/21 01:20:47;;;;;;;38.35;17.23;;;;;;;10.56;62.53;100830.91;4942763;28;97386;-67
2022/12/21 01:23:15;;;;;;;35.38;16.38;;;;;;;10.65;62.11;100834.06;4945204;28;99015;-67
2022/12/21 01:25:42;;;;;;;35.60;16.83;;;;;;;10.67;61.55;100829.59;4947854;28;98323;-66
2022/12/21 01:28:09;;;;;;;32.40;15.93;;;;;;;10.45;62.84;100823.31;4952374;28;97259;-66
2022/12/21 01:30:36;;;;;;;32.35;15.60;;;;;;;10.43;63.40;100825.16;4947034;28;97781;-68
2022/12/21 01:33:04;;;;;;;34.50;16.98;;;;;;;10.40;63.26;100819.97;4944137;28;99662;-67
2022/12/21 01:35:30;;;;;;;36.35;17.33;;;;;;;10.57;62.76;100816.75;4949764;28;99473;-68
2022/12/21 01:37:56;;;;;;;35.22;17.38;;;;;;;10.34;63.39;100817.53;4943166;28;97049;-67
2022/12/21 01:40:23;;;;;;;37.25;17.00;;;;;;;10.33;63.24;100813.16;4944889;28;97251;-66
2022/12/21 01:42:50;;;;;;;34.85;16.65;;;;;;;10.28;63.54;100820.38;4948230;28;99271;-66
2022/12/21 01:45:20;;;;;;;37.00;16.73;;;;;;;10.49;63.03;100810.88;4951077;28;101959;-66
2022/12/21 01:47:50;;;;;;;34.92;16.17;;;;;;;10.52;63.25;100813.41;4951183;28;98263;-67
2022/12/21 01:50:30;;;;;;;33.40;16.08;;;;;;;10.53;62.80;100809.84;4946603;28;97580;-66
2022/12/21 01:53:00;;;;;;;36.03;16.83;;;;;;;10.40;63.49;100806.75;4945889;28;101935;-66
2022/12/21 01:55:27;;;;;;;35.13;16.35;;;;;;;10.35;63.67;100808.72;4943564;28;99206;-67
2022/12/21 01:57:54;;;;;;;34.38;16.58;;;;;;;10.56;63.04;100801.84;4945516;28;97254;-72
2022/12/21 02:00:21;;;;;;;36.97;16.13;;;;;;;10.62;63.13;100804.25;4946958;28;96822;-71
2022/12/21 02:02:50;;;;;;;36.08;16.77;;;;;;;10.67;62.95;100803.19;4947861;28;98092;-72
2022/12/21 02:05:24;;;;;;;35.15;15.98;;;;;;;10.60;63.07;100806.94;4948799;28;99258;-71
2022/12/21 02:07:56;;;;;;;39.22;18.60;;;;;;;10.47;63.51;100808.28;4944671;28;96818;-73
2022/12/21 02:10:23;;;;;;;39.90;16.98;;;;;;;10.40;64.18;100804.13;4945142;28;96717;-72
2022/12/21 02:12:55;;;;;;;35.15;17.10;;;;;;;10.36;64.42;100803.38;4948718;28;99488;-71
2022/12/21 02:15:27;;;;;;;35.08;16.27;;;;;;;10.33;64.14;100802.59;4944593;28;97805;-72
2022/12/21 02:18:03;;;;;;;37.25;18.02;;;;;;;10.54;63.60;100801.00;4949578;28;96825;-72
2022/12/21 02:20:49;;;;;;;42.85;18.15;;;;;;;10.51;64.13;100799.31;4948736;28;99527;-73
2022/12/21 02:23:51;;;;;;;39.65;18.77;;;;;;;10.52;63.95;100808.97;4954233;28;98953;-74
2022/12/21 02:26:40;;;;;;;33.30;17.15;;;;;;;10.51;64.14;100786.13;4949441;28;98842;-72
2022/12/21 02:29:37;;;;;;;38.67;18.40;;;;;;;10.39;64.52;100797.97;4951247;28;96850;-74
2022/12/21 02:32:13;;;;;;;36.03;16.40;;;;;;;10.20;65.35;100799.50;4955760;28;97781;-73
2022/12/21 02:34:48;;;;;;;41.17;18.57;;;;;;;10.20;65.17;100796.00;4949999;28;98738;-72
2022/12/21 02:37:20;;;;;;;31.60;14.40;;;;;;;10.19;65.03;100789.84;4946076;28;101430;-73
2022/12/21 02:39:55;;;;;;;34.70;16.08;;;;;;;10.41;64.34;100787.38;4951800;28;97876;-73
2022/12/21 02:45:22;;;;;;;34.40;16.42;;;;;;;10.60;63.70;100790.22;4943324;28;97332;-72
2022/12/21 02:47:56;;;;;;;33.95;17.60;;;;;;;10.37;64.52;100789.22;4949248;28;98914;-71
2022/12/21 02:50:28;;;;;;;36.05;17.40;;;;;;;10.18;65.46;100793.41;4947867;28;99094;-72
2022/12/21 02:53:00;;;;;;;37.25;17.52;;;;;;;10.28;64.90;100786.06;4949281;28;97564;-71
2022/12/21 02:55:27;;;;;;;36.72;16.67;;;;;;;10.30;65.06;100778.94;4946919;28;102025;-72
2022/12/21 02:58:12;;;;;;;35.95;17.52;;;;;;;10.28;64.81;100780.78;4948471;28;99239;-72
2022/12/21 03:00:52;;;;;;;37.13;17.25;;;;;;;10.38;64.70;100772.47;4944533;28;96769;-74
2022/12/21 03:03:49;;;;;;;37.97;17.63;;;;;;;10.27;65.04;100779.91;4946972;28;97311;-71
2022/12/21 03:06:29;;;;;;;35.60;16.88;;;;;;;10.03;66.01;100769.25;4953598;28;98035;-72
2022/12/21 03:09:06;;;;;;;39.33;17.75;;;;;;;9.99;66.15;100774.63;4963428;28;98885;-72
2022/12/21 03:11:41;;;;;;;37.13;17.88;;;;;;;10.48;64.60;100780.09;4952691;28;96809;-72
2022/12/21 03:14:12;;;;;;;39.88;18.15;;;;;;;10.46;64.36;100774.84;4951648;28;96830;-72
2022/12/21 03:16:47;;;;;;;38.20;17.48;;;;;;;10.49;63.84;100771.25;4953740;28;99754;-72
2022/12/21 03:19:22;;;;;;;38.90;18.17;;;;;;;10.54;63.80;100774.59;4948290;28;99230;-72
2022/12/21 03:21:54;;;;;;;38.30;18.02;;;;;;;10.49;63.83;100771.25;4950017;28;96968;-72
2022/12/21 03:24:24;;;;;;;37.72;17.05;;;;;;;10.12;65.46;100782.16;4944472;28;96911;-72
2022/12/21 03:26:57;;;;;;;38.97;19.25;;;;;;;10.22;65.47;100780.97;4946633;28;98198;-71
2022/12/21 03:29:33;;;;;;;40.53;19.05;;;;;;;10.24;64.80;100773.88;4950594;28;99587;-71
2022/12/21 03:32:06;;;;;;;39.42;17.92;;;;;;;10.22;64.87;100771.28;4945709;28;97502;-72
2022/12/21 03:34:37;;;;;;;41.25;17.80;;;;;;;9.88;66.03;100774.13;4949648;28;98804;-71
2022/12/21 03:37:09;;;;;;;36.70;17.77;;;;;;;10.05;65.77;100768.28;4953089;28;98829;-72
2022/12/21 03:39:39;;;;;;;38.90;18.35;;;;;;;10.10;65.45;100770.78;4945597;28;98883;-72
2022/12/21 03:42:11;;;;;;;40.88;19.00;;;;;;;10.12;65.23;100761.03;4947228;28;97454;-71
2022/12/21 03:44:42;;;;;;;39.67;19.25;;;;;;;10.34;64.65;100767.34;4948727;28;96732;-72
2022/12/21 03:47:12;;;;;;;41.70;18.17;;;;;;;10.31;64.52;100762.16;4945318;28;98988;-73
2022/12/21 03:49:42;;;;;;;42.15;19.45;;;;;;;10.22;64.71;100760.72;4948177;28;98380;-72
2022/12/21 03:52:13;;;;;;;39.47;18.33;;;;;;;10.12;65.04;100761.88;4945627;28;96907;-72
2022/12/21 03:54:46;;;;;;;43.30;20.15;;;;;;;10.19;65.10;100758.16;4947646;28;97323;-72
2022/12/21 03:57:13;;;;;;;40.85;19.50;;;;;;;10.18;64.84;100760.84;4939543;28;98997;-72
2022/12/21 03:59:43;;;;;;;41.28;18.60;;;;;;;10.30;64.51;100756.03;4945035;28;101471;-71
2022/12/21 04:02:16;;;;;;;39.83;18.63;;;;;;;10.15;64.84;100753.00;4947964;28;96944;-72
2022/12/21 04:04:50;;;;;;;44.70;19.52;;;;;;;10.26;64.57;100746.47;4947732;28;96793;-72
2022/12/21 04:07:23;;;;;;;39.95;19.30;;;;;;;10.12;64.82;100748.69;4946093;28;99067;-71
2022/12/21 04:09:55;;;;;;;42.85;19.13;;;;;;;10.15;65.10;100747.72;4946406;28;100294;-71
2022/12/21 04:12:37;;;;;;;42.03;19.33;;;;;;;10.22;64.39;100757.22;4949684;28;97620;-71
2022/12/21 04:15:06;;;;;;;40.92;17.67;;;;;;;10.24;64.80;100758.03;4940740;28;96841;-73
2022/12/21 04:17:32;;;;;;;45.30;19.10;;;;;;;10.20;64.93;100751.09;4945141;28;99643;-72
2022/12/21 04:19:59;;;;;;;43.22;20.50;;;;;;;10.24;64.98;100750.09;4946470;28;99155;-72
2022/12/21 04:28:09;;;;;;;39.28;20.15;;;;;;;10.40;64.35;100743.38;4946250;28;97774;-71
2022/12/21 04:30:38;;;;;;;40.50;19.25;;;;;;;10.05;65.37;100744.53;4944068;28;98872;-72
2022/12/21 04:33:05;;;;;;;39.42;18.38;;;;;;;10.03;65.59;100738.44;4944518;28;96806;-71
2022/12/21 04:35:33;;;;;;;35.97;17.70;;;;;;;10.16;65.29;100738.91;4951203;28;96874;-72
2022/12/21 04:37:59;;;;;;;45.10;20.65;;;;;;;10.23;65.12;100746.59;4948163;28;99393;-72
2022/12/21 04:40:25;;;;;;;;;;;;;;;10.34;64.46;100740.94;4951830;28;98858;-71
2022/12/21 04:42:51;;;;;;;42.38;19.45;;;;;;;10.43;64.24;100745.06;4949890;28;99175;-72
2022/12/21 04:45:18;;;;;;;39.95;20.33;;;;;;;10.38;64.55;100739.91;4946756;28;96789;-72
2022/12/21 04:47:44;;;;;;;44.35;20.15;;;;;;;10.44;64.62;100741.47;4954254;28;99148;-72
2022/12/21 04:50:11;;;;;;;44.17;19.98;;;;;;;10.33;64.80;100737.44;4942838;28;100274;-72
2022/12/21 04:52:39;;;;;;;42.47;19.83;;;;;;;10.20;65.43;100730.84;4948995;28;97745;-73
2022/12/21 04:55:06;;;;;;;40.53;19.58;;;;;;;10.37;65.08;100733.75;4950644;28;96857;-73
2022/12/21 04:57:32;;;;;;;39.70;18.75;;;;;;;10.36;65.16;100726.78;4945019;28;99484;-71
2022/12/21 04:59:59;;;;;;;39.95;19.20;;;;;;;10.28;65.20;100727.94;4944785;28;98856;-68
2022/12/21 05:02:25;;;;;;;42.65;19.63;;;;;;;10.07;66.04;100731.28;4944687;28;97493;-67
2022/12/21 05:04:52;;;;;;;40.28;19.45;;;;;;;10.43;65.09;100735.34;4951807;28;98914;-67
2022/12/21 05:07:18;;;;;;;41.00;18.83;;;;;;;10.22;65.31;100736.09;4939357;28;99175;-67
2022/12/21 05:09:46;;;;;;;42.53;19.45;;;;;;;10.30;65.54;100736.69;4949908;28;98949;-67
2022/12/21 05:12:12;;;;;;;44.17;19.70;;;;;;;10.22;65.76;100741.38;4947102;28;97895;-67
2022/12/21 05:14:39;;;;;;;38.40;19.50;;;;;;;10.21;65.99;100737.00;4945830;28;97504;-66
2022/12/21 05:17:05;;;;;;;41.63;20.45;;;;;;;10.21;65.76;100739.63;4943697;28;98895;-67
2022/12/21 05:19:32;;;;;;;45.90;20.30;;;;;;;10.20;66.10;100738.78;4946264;28;99163;-67
2022/12/21 05:21:58;;;;;;;47.88;20.73;;;;;;;10.34;66.15;100736.53;4948800;28;96977;-67
2022/12/21 05:24:25;;;;;;;43.15;20.30;;;;;;;10.39;65.68;100737.22;4956687;28;100170;-67
2022/12/21 05:26:52;;;;;;;47.33;21.35;;;;;;;10.56;65.57;100730.50;4950126;28;99686;-68
2022/12/21 05:29:19;;;;;;;43.75;20.50;;;;;;;10.52;65.60;100728.84;4955255;28;98900;-66
2022/12/21 05:31:45;;;;;;;40.38;19.70;;;;;;;10.51;65.90;100738.56;4953493;28;97157;-66
2022/12/21 05:34:12;;;;;;;48.88;21.23;;;;;;;10.48;65.67;100729.91;4950155;28;99374;-66
2022/12/21 05:36:38;;;;;;;46.80;21.13;;;;;;;10.38;66.41;100729.34;4948042;28;99398;-67
2022/12/21 05:39:05;;;;;;;41.00;19.98;;;;;;;10.42;66.16;100723.06;4950771;28;98048;-67
2022/12/21 05:41:31;;;;;;;50.33;21.85;;;;;;;10.54;66.01;100724.38;4944727;28;96982;-66
2022/12/21 05:43:59;;;;;;;45.78;21.02;;;;;;;10.67;65.29;100734.47;4948306;28;97030;-66
2022/12/21 05:46:26;;;;;;;45.78;20.73;;;;;;;10.37;66.48;100735.56;4945859;28;99136;-66
2022/12/21 05:48:54;;;;;;;48.88;20.92;;;;;;;10.46;66.30;100735.22;4950116;28;98973;-66
2022/12/21 05:51:20;;;;;;;44.83;20.70;;;;;;;10.41;66.35;100736.31;4947863;28;98823;-67
2022/12/21 05:53:47;;;;;;;45.03;20.95;;;;;;;10.52;65.90;100734.16;4949239;28;96775;-67
2022/12/21 05:56:13;;;;;;;43.75;20.38;;;;;;;10.67;66.13;100731.81;4947071;28;98914;-67
2022/12/21 05:58:48;;;;;;;45.33;21.20;;;;;;;10.60;66.01;100740.88;4947159;28;98795;-67
2022/12/21 06:01:16;;;;;;;42.30;19.90;;;;;;;10.61;66.46;100739.97;4954808;28;96884;-66
2022/12/21 06:03:43;;;;;;;46.50;20.95;;;;;;;10.68;65.93;100733.56;4950326;28;97860;-66
2022/12/21 06:06:11;;;;;;;44.03;21.63;;;;;;;10.75;65.67;100731.56;4951950;28;100615;-66
2022/12/21 06:08:38;;;;;;;45.40;20.92;;;;;;;10.76;65.75;100739.41;4947208;28;97788;-65
2022/12/21 06:11:07;;;;;;;39.55;19.75;;;;;;;10.89;65.54;100741.63;4950778;28;97673;-66
2022/12/21 06:13:33;;;;;;;41.53;20.90;;;;;;;10.73;65.84;100747.47;4951038;28;98545;-67
2022/12/21 06:16:06;;;;;;;47.05;21.33;;;;;;;10.61;66.72;100739.97;4949457;28;98959;-66
2022/12/21 06:18:34;;;;;;;43.30;21.42;;;;;;;10.58;67.13;100734.78;4948499;28;99398;-66
2022/12/21 06:21:00;;;;;;;46.33;22.17;;;;;;;10.75;66.45;100731.56;4942113;28;96790;-67
2022/12/21 06:23:27;;;;;;;49.17;21.20;;;;;;;10.74;66.66;100735.97;4948146;28;98555;-67
2022/12/21 06:25:57;;;;;;;45.30;21.67;;;;;;;10.83;65.95;100737.41;4953021;28;98184;-66
2022/12/21 06:28:25;;;;;;;46.05;21.38;;;;;;;10.81;66.05;100741.03;4950404;28;98917;-65
2022/12/21 06:30:52;;;;;;;45.40;21.50;;;;;;;10.89;66.29;100745.13;4943960;28;97403;-65
2022/12/21 06:33:20;;;;;;;41.13;21.25;;;;;;;10.87;66.20;100736.38;4944791;28;97753;-67
2022/12/21 06:35:48;;;;;;;47.00;20.92;;;;;;;10.95;66.06;100744.03;4942445;28;99055;-66
2022/12/21 06:38:15;;;;;;;48.45;21.75;;;;;;;10.95;66.00;100742.25;4943794;28;98891;-66
2022/12/21 06:40:41;;;;;;;47.92;21.75;;;;;;;11.19;65.41;100743.13;4948087;28;97174;-66
2022/12/21 06:43:07;;;;;;;47.67;22.10;;;;;;;10.87;66.21;100738.16;4946367;28;96852;-66
2022/12/21 06:45:34;;;;;;;45.67;22.20;;;;;;;11.01;65.79;100743.81;4942358;28;99059;-67
2022/12/21 06:48:00;;;;;;;48.67;21.77;;;;;;;10.97;66.33;100755.41;4949637;28;98980;-65
2022/12/21 06:50:27;;;;;;;49.95;22.42;;;;;;;10.94;66.52;100747.59;4953919;28;96856;-66
2022/12/21 06:52:54;;;;;;;46.25;22.95;;;;;;;10.81;66.89;100741.03;4946339;28;96924;-66
2022/12/21 06:55:21;;;;;;;62.25;22.52;;;;;;;10.67;67.24;100739.75;4949170;28;99941;-66
2022/12/21 06:57:47;;;;;;;46.13;22.30;;;;;;;10.85;66.99;100740.84;4942531;28;99059;-66
2022/12/21 07:00:14;;;;;;;46.40;21.38;;;;;;;11.00;66.11;100744.72;4949107;28;97097;-68
2022/12/21 07:02:44;;;;;;;43.25;22.17;;;;;;;11.16;66.16;100743.22;4939683;28;96945;-66
2022/12/21 07:05:11;;;;;;;45.30;21.98;;;;;;;11.00;66.57;100737.66;4947950;28;98970;-67
2022/12/21 07:07:37;;;;;;;46.83;22.40;;;;;;;11.05;66.82;100750.69;4945065;28;99551;-66
2022/12/21 07:10:06;;;;;;;44.50;21.73;;;;;;;10.98;66.91;100739.50;4945603;28;97804;-66
2022/12/21 07:12:33;;;;;;;44.28;22.02;;;;;;;10.96;66.69;100746.59;4938548;28;96852;-69
2022/12/21 07:14:59;;;;;;;49.58;22.45;;;;;;;10.86;67.05;100753.16;4947414;28;98906;-72
2022/12/21 07:17:26;;;;;;;50.63;22.42;;;;;;;10.99;66.90;100746.50;4947084;28;99003;-72
2022/12/21 07:19:52;;;;;;;48.67;22.95;;;;;;;11.17;65.94;100744.94;4950071;28;96766;-72
2022/12/21 07:22:21;;;;;;;48.97;22.67;;;;;;;11.15;66.13;100737.09;4944959;28;96961;-72
2022/12/21 07:24:48;;;;;;;41.50;21.23;;;;;;;11.22;66.33;100743.00;4953663;28;99151;-72
2022/12/21 07:27:16;;;;;;;45.80;21.95;;;;;;;11.29;66.33;100746.28;4939250;28;97930;-71
2022/12/21 07:29:42;;;;;;;41.08;22.13;;;;;;;11.10;66.32;100751.38;4943665;28;96867;-72
2022/12/21 07:32:09;;;;;;;41.05;22.05;;;;;;;11.01;66.74;100754.38;4947273;28;97421;-72
2022/12/21 07:34:39;;;;;;;42.67;22.15;;;;;;;11.14;66.54;100761.81;4950359;28;99372;-73
2022/12/21 07:37:05;;;;;;;44.65;21.90;;;;;;;11.09;66.60;100761.09;4943950;28;101438;-73
2022/12/21 07:39:35;;;;;;;41.15;21.00;;;;;;;10.97;67.18;100758.03;4944676;28;96885;-73
2022/12/21 07:42:01;;;;;;;43.40;21.77;;;;;;;11.33;66.25;100759.31;4940522;28;97420;-74
2022/12/21 07:44:29;;;;;;;51.70;22.60;;;;;;;11.19;66.72;100756.34;4946188;28;98982;-73
2022/12/21 07:46:55;;;;;;;49.38;23.42;;;;;;;11.31;66.30;100747.06;4941533;28;99257;-73
2022/12/21 07:49:22;;;;;;;39.85;21.50;;;;;;;11.42;65.60;100750.19;4947485;28;96925;-73
2022/12/21 07:51:48;;;;;;;52.28;23.27;;;;;;;11.43;65.73;100752.75;4943867;28;97624;-73
2022/12/21 07:54:15;;;;;;;43.35;21.92;;;;;;;11.42;65.77;100756.31;4949061;28;98965;-72
2022/12/21 07:56:42;;;;;;;46.72;21.38;;;;;;;11.46;65.75;100757.94;4943723;28;99136;-73
2022/12/21 07:59:09;;;;;;;48.92;22.90;;;;;;;11.46;65.95;100763.22;4943209;28;96823;-73
2022/12/21 08:01:37;;;;;;;41.67;21.67;;;;;;;11.50;65.70;100764.81;4945597;28;96976;-73
2022/12/21 08:04:03;;;;;;;43.13;22.48;;;;;;;11.51;65.95;100770.97;4937475;28;98931;-72
2022/12/21 08:06:30;;;;;;;49.33;22.45;;;;;;;11.38;65.90;100780.31;4948598;28;98821;-73
2022/12/21 08:08:56;;;;;;;39.05;21.67;;;;;;;11.39;66.12;100772.31;4943233;28;96890;-74
2022/12/21 08:11:23;;;;;;;42.08;22.58;;;;;;;11.49;65.67;100781.59;4939665;28;96933;-73
2022/12/21 08:13:49;;;;;;;41.08;22.13;;;;;;;11.45;66.10;100782.66;4947439;28;99108;-72
2022/12/21 08:16:17;;;;;;;42.28;21.13;;;;;;;11.82;64.96;100781.25;4951036;28;99252;-72
2022/12/21 08:18:45;;;;;;;42.97;21.98;;;;;;;11.54;65.61;100779.69;4947894;28;97861;-72
2022/12/21 08:21:12;;;;;;;44.17;22.38;;;;;;;11.16;66.94;100782.88;4953869;28;96961;-72
2022/12/21 08:23:39;;;;;;;41.00;20.27;;;;;;;11.42;66.54;100779.28;4946300;28;99425;-73
2022/12/21 08:26:07;;;;;;;40.45;21.02;;;;;;;11.39;66.38;100790.84;4950281;28;99118;-72
2022/12/21 08:28:34;;;;;;;40.63;21.52;;;;;;;11.62;65.93;100789.94;4938917;28;98341;-72
2022/12/21 08:31:02;;;;;;;44.35;20.38;;;;;;;11.64;65.65;100797.81;4942597;28;97875;-73
2022/12/21 08:33:29;;;;;;;39.25;21.17;;;;;;;11.63;66.08;100789.00;4939777;28;98342;-73
2022/12/21 08:35:56;;;;;;;44.30;21.27;;;;;;;11.70;65.47;100789.63;4943578;28;101812;-72
2022/12/21 08:38:23;;;;;;;44.33;21.88;;;;;;;11.88;64.77;100799.56;4948172;28;97151;-73
2022/12/21 08:40:50;;;;;;;41.88;21.05;;;;;;;11.79;65.02;100798.13;4947533;28;96885;-72
2022/12/21 08:43:17;;;;;;;44.60;21.83;;;;;;;11.90;64.76;100789.75;4934843;28;99297;-73
2022/12/21 08:45:44;;;;;;;39.78;21.23;;;;;;;11.84;65.08;100785.56;4946369;28;99265;-72
2022/12/21 08:48:11;;;;;;;41.92;21.70;;;;;;;11.90;64.48;100793.25;4941334;28;97738;-72
2022/12/21 08:50:37;;;;;;;43.28;21.60;;;;;;;11.88;64.78;100791.63;4953274;28;96955;-73
2022/12/21 08:53:05;;;;;;;37.83;20.23;;;;;;;11.89;64.63;100788.88;4945781;28;99221;-73
2022/12/21 08:55:32;;;;;;;46.67;20.38;;;;;;;11.91;64.78;100789.69;4942386;28;99284;-74
2022/12/21 08:57:58;;;;;;;43.47;20.83;;;;;;;12.04;64.19;100779.47;4939288;28;96808;-72
2022/12/21 09:00:25;;;;;;;41.17;21.25;;;;;;;11.95;64.49;100785.13;4944281;28;97420;-73
2022/12/21 09:02:51;;;;;;;39.28;20.33;;;;;;;12.18;64.06;100789.50;4935772;28;97638;-72
2022/12/21 09:05:18;;;;;;;39.63;20.65;;;;;;;12.17;63.74;100788.63;4935451;28;99022;-66
2022/12/21 09:07:53;;;;;;;41.90;20.77;;;;;;;12.02;64.59;100793.69;4942157;28;96826;-68
2022/12/21 09:10:21;;;;;;;42.57;20.43;;;;;;;12.00;64.61;100792.91;4940884;28;97200;-66
2022/12/21 09:12:48;;;;;;;35.42;20.15;;;;;;;12.02;64.68;100797.19;4938891;28;99095;-67
2022/12/21 09:15:14;;;;;;;38.05;20.58;;;;;;;12.03;64.65;100796.28;4941453;28;98006;-67
2022/12/21 09:17:40;;;;;;;38.58;20.90;;;;;;;12.22;64.20;100785.78;4942494;28;97149;-66
2022/12/21 09:20:08;;;;;;;39.83;20.83;;;;;;;12.28;63.79;100783.72;4938408;28;97978;-66
2022/12/21 09:22:35;;;;;;;41.20;21.40;;;;;;;12.07;64.20;100779.34;4939309;28;99340;-67
2022/12/21 09:25:01;;;;;;;39.17;21.65;;;;;;;12.17;64.38;100787.75;4939041;28;99195;-66
2022/12/21 09:27:29;;;;;;;45.00;21.88;;;;;;;12.13;64.45;100776.44;4943300;28;97014;-66
2022/12/21 09:29:56;;;;;;;37.95;20.00;;;;;;;12.09;64.43;100780.13;4937288;28;96859;-73
2022/12/21 09:32:22;;;;;;;40.33;21.25;;;;;;;12.15;64.72;100774.56;4943464;28;99187;-73
2022/12/21 09:34:49;;;;;;;39.17;20.88;;;;;;;12.24;64.10;100783.94;4937479;28;99153;-73
2022/12/21 09:37:16;;;;;;;35.28;18.33;;;;;;;12.19;64.62;100781.50;4938992;28;96925;-66
2022/12/21 09:39:43;;;;;;;34.45;19.92;;;;;;;11.92;65.47;100783.47;4946797;28;97254;-68
2022/12/21 09:42:24;;;;;;;40.05;20.60;;;;;;;11.94;65.82;100791.38;4940446;28;97762;-66
2022/12/21 09:45:10;;;;;;;35.70;19.63;;;;;;;12.00;65.42;100790.25;4941124;28;98879;-65
2022/12/21 09:47:43;;;;;;;36.38;19.92;;;;;;;12.14;64.96;100794.03;4944909;28;97302;-66
2022/12/21 09:50:16;;;;;;;35.63;19.42;;;;;;;12.14;64.85;100783.44;4941134;28;97332;-66
2022/12/21 09:52:47;;;;;;;41.42;22.08;;;;;;;12.22;64.88;100791.94;4944152;28;100426;-68
2022/12/21 09:55:17;;;;;;;38.90;20.75;;;;;;;12.19;64.95;100789.44;4939441;28;98960;-67
2022/12/21 09:57:44;;;;;;;33.85;19.40;;;;;;;12.23;64.78;100792.81;4941014;28;98737;-66
2022/12/21 10:00:18;;;;;;;36.22;19.05;;;;;;;12.24;64.82;100791.88;4943525;28;97320;-68
2022/12/21 10:02:58;;;;;;;34.47;19.92;;;;;;;11.95;65.95;100788.63;4940602;28;99421;-67
2022/12/21 10:05:44;;;;;;;38.00;19.35;;;;;;;12.22;65.02;100786.63;4942850;28;101579;-68
2022/12/21 10:08:44;;;;;;;36.78;19.13;;;;;;;12.29;64.91;100772.22;4944449;28;97423;-67
2022/12/21 10:11:17;;;;;;;30.65;18.25;;;;;;;12.47;64.20;100783.81;4946370;28;97189;-66
2022/12/21 10:13:48;;;;;;;34.05;19.65;;;;;;;12.25;64.76;100778.59;4941330;28;100862;-68
2022/12/21 10:16:30;;;;;;;34.92;19.63;;;;;;;12.27;65.17;100778.53;4942114;28;99107;-67
2022/12/21 10:19:03;;;;;;;34.83;18.80;;;;;;;12.23;65.19;100779.56;4936444;28;96849;-67
2022/12/21 10:21:43;;;;;;;40.65;19.75;;;;;;;12.30;64.75;100783.69;4943008;28;98546;-67
2022/12/21 10:24:20;;;;;;;32.67;18.52;;;;;;;12.45;64.37;100787.47;4944643;28;99187;-68
2022/12/21 10:26:48;;;;;;;36.17;19.55;;;;;;;12.29;65.06;100774.88;4944558;28;99571;-67
2022/12/21 10:29:19;;;;;;;35.78;19.45;;;;;;;12.27;65.47;100768.75;4943105;28;97081;-68
2022/12/21 10:31:48;;;;;;;36.88;20.58;;;;;;;12.43;64.81;100768.97;4941551;28;97177;-68
2022/12/21 10:34:17;;;;;;;35.97;18.80;;;;;;;12.35;65.10;100776.38;4939287;28;99351;-67
2022/12/21 10:36:46;;;;;;;36.42;19.38;;;;;;;12.26;65.21;100774.16;4944164;28;99518;-67
2022/12/21 10:39:15;;;;;;;35.38;19.75;;;;;;;12.43;64.83;100765.47;4946170;28;97716;-69
2022/12/21 10:41:45;;;;;;;37.47;19.25;;;;;;;12.53;64.15;100764.16;4941840;28;97283;-68
2022/12/21 10:44:13;;;;;;;32.00;18.70;;;;;;;12.62;64.11;100758.44;4947870;28;99448;-66
2022/12/21 10:46:39;;;;;;;32.40;19.02;;;;;;;12.65;63.68;100748.59;4948377;28;98967;-67
2022/12/21 10:49:17;;;;;;;32.38;18.88;;;;;;;12.44;64.72;100751.28;4946477;28;97128;-67
2022/12/21 10:51:44;;;;;;;34.78;19.70;;;;;;;12.41;64.56;100749.63;4943075;28;96908;-68
2022/12/21 10:54:11;;;;;;;31.85;17.60;;;;;;;12.32;65.01;100745.59;4936237;28;99067;-66
2022/12/21 10:56:44;;;;;;;37.47;19.85;;;;;;;12.51;64.82;100760.72;4944539;28;97149;-69
2022/12/21 10:59:16;;;;;;;32.92;18.25;;;;;;;12.56;64.58;100753.41;4939816;28;97662;-67
2022/12/21 11:01:43;;;;;;;35.55;19.45;;;;;;;12.49;64.72;100746.66;4948004;28;96889;-67
2022/12/21 11:04:14;;;;;;;32.85;18.67;;;;;;;12.52;64.96;100741.22;4940220;28;98325;-67
2022/12/21 11:06:56;;;;;;;40.10;19.10;;;;;;;12.71;64.39;100739.50;4947297;28;99280;-68
2022/12/21 11:09:36;;;;;;;33.75;18.63;;;;;;;12.58;64.70;100725.91;4945397;28;97215;-68
2022/12/21 11:12:15;;;;;;;32.88;18.42;;;;;;;12.65;64.51;100727.38;4952553;28;96805;-67
2022/12/21 11:14:42;;;;;;;33.72;19.35;;;;;;;12.69;64.44;100726.31;4944691;28;98482;-67
2022/12/21 11:17:17;;;;;;;40.10;20.10;;;;;;;12.82;64.20;100742.53;4941937;28;101568;-70
2022/12/21 11:19:45;;;;;;;31.17;18.63;;;;;;;12.84;64.00;100742.47;4943005;28;97527;-68
2022/12/21 11:22:15;;;;;;;32.17;18.20;;;;;;;12.89;63.80;100741.31;4943908;28;96937;-69
2022/12/21 11:24:44;;;;;;;30.55;18.10;;;;;;;12.62;64.63;100742.53;4949704;28;99074;-67
2022/12/21 11:27:22;;;;;;;35.72;18.75;;;;;;;12.88;64.19;100736.06;4942661;28;98898;-67
2022/12/21 11:29:51;;;;;;;30.63;18.23;;;;;;;12.68;64.77;100736.97;4940294;28;98023;-67